Terminal Aerodrome Forecast
Issued by NWS

Home | Current Version | Previous Version | Text Only | Print | Product List | Glossary On
Versions: 1 2 3 4 5 6 7 8 9 10 11 12 13
398
FTUS45 KRIW 192322
TAFCPR
TAF
KCPR 192322Z 2000/2024 22024G36KT P6SM SCT250
     FM200200 23015G25KT P6SM SCT090 BKN250
     FM200600 25010KT 5SM -SHSN SCT015 OVC035
     FM201200 24014KT P6SM VCSH SCT020 OVC040=

USA.gov is the U.S. government's official web portal to all federal, state and local government web resources and services.